Tomah, WI

8:55 AM CDT on September 28, 2016 (GMT -0500)
Tomah City Airport | | Change Station

Elev 966 ft 43.97 °N, 90.49 °W | Updated 11 minutes ago

Overcast
Overcast
52.7 °F
Feels Like 52.7 °F
N
7.8
Wind Variable Wind from WSW

Today
High -- | Low -- °F
--% Chance of Precip.
Yesterday
High -- | Low -- °F
Precip. -- in
Pressure 29.95 in
Visibility 10.0 miles
Clouds Scattered Clouds 800 ft
Overcast 1300 ft
Dew Point 52 °F
Humidity 99%
Rainfall 0.00 in
Snow Depth Not available.
6:56 AM 6:47 PM
Waning Crescent, 6% visible
SPECI KVOK 281340Z 33007KT 10SM SCT008 OVC013 11/10 A2995 RMK AO2A
Pressure 29.95 in
Visibility 10.0 miles
Clouds Scattered Clouds 800 ft
Overcast 1300 ft
Dew Point 52 °F
Humidity 99%
Rainfall 0.00 in
Snow Depth Not available.
6:56 AM 6:47 PM
Waning Crescent, 6% visible
SPECI KVOK 281340Z 33007KT 10SM SCT008 OVC013 11/10 A2995 RMK AO2A

10-Day Weather Forecast

Almanac

Astronomy

Sep. 28, 2016 Rise Set
Actual Time
Civil Twilight
Nautical Twilight
Astronomical Twilight
Moon
Length of Visible Light
Length of Day
Tomorrow will be .
, % of the Moon is Illuminated

Today's Extremes

State Highs State Lows

Community

WunderPhotos

Upload Photos

1,942,259 photos uploaded!

WunderBlog® & News

Nearby

Air Quality

  Air Quality AQ Index Pollutant
Not available.

Snow Depth

Station Depth Elevation

Earthquake Activity

City Distance Mag. Time & Date
Minimum magnitude displayed is 2.5.

Coastal Water Temperatures

Place Temperature

Stations

Nearby Weather Stations

Station Location Temp. Windchill Dew Point Humidity Wind Precip. Elev Updated Type
                   

Watches & Warnings

There are currently no watches in effect.